createdAt,value
2017-10-29T00:01:49.290Z,4.80
2017-10-29T00:04:16.926Z,4.07
2017-10-29T00:06:44.543Z,4.30
2017-10-29T00:09:12.160Z,4.50
2017-10-29T00:11:39.802Z,4.10
2017-10-29T00:14:08.179Z,4.50
2017-10-29T00:16:35.835Z,3.40
2017-10-29T00:19:03.449Z,4.28
2017-10-29T00:21:31.882Z,3.80
2017-10-29T00:23:59.522Z,2.92
2017-10-29T00:26:27.146Z,3.78
2017-10-29T00:28:54.791Z,3.30
2017-10-29T00:31:22.406Z,2.70
2017-10-29T00:33:50.027Z,3.42
2017-10-29T00:36:17.661Z,2.67
2017-10-29T00:38:45.283Z,3.33
2017-10-29T00:41:12.926Z,4.47
2017-10-29T00:43:40.540Z,3.08
2017-10-29T00:46:08.156Z,2.35
2017-10-29T00:48:35.793Z,3.70
2017-10-29T00:51:03.414Z,2.75
2017-10-29T00:53:31.066Z,2.55
2017-10-29T00:55:58.686Z,1.65
2017-10-29T00:58:26.298Z,1.70
2017-10-29T01:00:53.946Z,1.70
2017-10-29T01:03:21.557Z,1.77
2017-10-29T01:05:49.199Z,1.70
2017-10-29T01:08:16.805Z,1.42
2017-10-29T01:10:44.432Z,1.75
2017-10-29T01:13:12.834Z,1.30
2017-10-29T01:15:40.443Z,1.27
2017-10-29T01:18:08.899Z,1.05
2017-10-29T01:20:36.523Z,1.25
2017-10-29T01:23:04.187Z,1.23
2017-10-29T01:25:31.832Z,1.52
2017-10-29T01:27:59.443Z,1.50
2017-10-29T01:30:27.090Z,1.50
2017-10-29T01:32:54.730Z,1.58
2017-10-29T01:35:22.385Z,1.42
2017-10-29T01:37:50.069Z,2.33
2017-10-29T01:40:17.681Z,1.25
2017-10-29T01:42:45.322Z,3.58
2017-10-29T01:45:12.922Z,1.37
2017-10-29T01:47:41.295Z,1.10
2017-10-29T01:50:09.711Z,1.50
2017-10-29T01:52:37.326Z,1.33
2017-10-29T01:55:04.965Z,1.17
2017-10-29T01:57:32.579Z,0.90
2017-10-29T02:00:00.186Z,0.90
2017-10-29T02:02:27.830Z,1.40
2017-10-29T02:04:55.443Z,1.20
2017-10-29T02:07:23.087Z,1.17
2017-10-29T02:09:50.718Z,1.25
2017-10-29T02:12:19.096Z,2.20
2017-10-29T02:14:46.734Z,0.93
2017-10-29T02:17:15.178Z,1.40
2017-10-29T02:19:42.829Z,1.48
2017-10-29T02:22:10.459Z,0.80
2017-10-29T02:24:38.070Z,0.93
2017-10-29T02:27:05.711Z,1.02
2017-10-29T02:29:33.347Z,0.80
2017-10-29T02:32:01.719Z,1.00
2017-10-29T02:34:29.334Z,1.00
2017-10-29T02:36:56.947Z,1.67
2017-10-29T02:39:24.590Z,0.70
2017-10-29T02:41:52.208Z,0.88
2017-10-29T02:44:19.854Z,0.80
2017-10-29T02:46:47.476Z,1.30
2017-10-29T02:49:15.862Z,0.75
2017-10-29T02:51:43.522Z,0.80
2017-10-29T02:54:11.136Z,0.75
2017-10-29T02:56:38.786Z,0.60
2017-10-29T02:59:06.407Z,0.60
2017-10-29T03:01:34.020Z,0.70
2017-10-29T03:04:01.731Z,0.70
2017-10-29T03:06:29.338Z,0.70
2017-10-29T03:08:56.982Z,0.60
2017-10-29T03:11:24.607Z,0.50
2017-10-29T03:13:52.217Z,0.60
2017-10-29T03:16:19.874Z,0.70
2017-10-29T03:18:47.495Z,0.60
2017-10-29T03:21:15.903Z,0.60
2017-10-29T03:23:43.528Z,0.65
2017-10-29T03:26:11.157Z,0.50
2017-10-29T03:28:38.802Z,0.70
2017-10-29T03:31:06.420Z,0.80
2017-10-29T03:33:34.891Z,0.60
2017-10-29T03:36:02.506Z,0.73
2017-10-29T03:38:30.119Z,0.50
2017-10-29T03:40:57.774Z,0.65
2017-10-29T03:43:25.390Z,0.57
2017-10-29T03:45:53.812Z,0.50
2017-10-29T03:48:21.422Z,0.70
2017-10-29T03:50:49.034Z,0.50
2017-10-29T03:53:16.692Z,0.50
2017-10-29T03:55:45.074Z,0.50
2017-10-29T03:58:12.722Z,0.50
2017-10-29T04:00:40.349Z,0.65
2017-10-29T04:03:08.734Z,0.50
2017-10-29T04:05:36.386Z,0.50
2017-10-29T04:08:03.993Z,0.60
2017-10-29T04:10:31.635Z,0.60
2017-10-29T04:12:59.251Z,0.60
2017-10-29T04:15:26.874Z,0.73
2017-10-29T04:17:54.514Z,0.60
2017-10-29T04:20:22.131Z,1.00
2017-10-29T04:22:50.544Z,1.48
2017-10-29T04:25:18.167Z,1.15
2017-10-29T04:27:45.791Z,1.20
2017-10-29T04:30:14.202Z,1.27
2017-10-29T04:32:41.831Z,0.88
2017-10-29T04:35:09.494Z,0.68
2017-10-29T04:37:37.107Z,0.70
2017-10-29T04:40:04.719Z,0.70
2017-10-29T04:42:32.506Z,1.33
2017-10-29T04:45:00.118Z,0.73
2017-10-29T04:47:27.867Z,1.48
2017-10-29T04:49:55.492Z,0.82
2017-10-29T04:52:23.101Z,1.25
2017-10-29T04:54:50.770Z,1.25
2017-10-29T04:57:18.452Z,0.93
2017-10-29T04:59:46.093Z,0.80
2017-10-29T05:02:13.714Z,1.65
2017-10-29T05:04:41.327Z,1.92
2017-10-29T05:07:08.966Z,3.58
2017-10-29T05:09:36.598Z,1.55
2017-10-29T05:12:05.010Z,1.60
2017-10-29T05:14:32.637Z,2.05
2017-10-29T05:17:00.255Z,1.10
2017-10-29T05:19:28.666Z,3.08
2017-10-29T05:21:56.277Z,3.40
2017-10-29T05:24:24.716Z,1.20
2017-10-29T05:26:52.329Z,5.53
2017-10-29T05:29:19.938Z,3.10
2017-10-29T05:31:47.587Z,2.33
2017-10-29T05:34:15.207Z,4.03
2017-10-29T05:36:42.901Z,3.05
2017-10-29T05:39:10.511Z,5.82
2017-10-29T05:41:38.906Z,4.60
2017-10-29T05:44:06.674Z,9.05
2017-10-29T05:46:34.297Z,6.37
2017-10-29T05:49:02.015Z,4.43
2017-10-29T05:51:30.404Z,6.05
2017-10-29T05:53:58.010Z,6.95
2017-10-29T05:56:25.715Z,4.80
2017-10-29T05:58:53.325Z,6.22
2017-10-29T06:01:21.748Z,7.07
2017-10-29T06:03:49.386Z,7.70
2017-10-29T06:06:16.999Z,10.40
2017-10-29T06:08:44.653Z,8.65
2017-10-29T06:11:12.283Z,15.82
2017-10-29T06:13:39.931Z,7.70
2017-10-29T06:16:07.547Z,9.00
2017-10-29T06:18:35.191Z,7.43
2017-10-29T06:21:02.940Z,8.27
2017-10-29T06:23:30.589Z,12.45
2017-10-29T06:25:58.239Z,12.13
2017-10-29T06:28:25.854Z,7.60
2017-10-29T06:30:53.466Z,9.50
2017-10-29T06:33:21.105Z,7.68
2017-10-29T06:35:48.726Z,12.57
2017-10-29T06:38:17.146Z,9.85
2017-10-29T06:40:44.769Z,13.77
2017-10-29T06:43:12.390Z,16.87
2017-10-29T06:45:42.685Z,11.63
2017-10-29T06:48:10.374Z,13.98
2017-10-29T06:50:38.034Z,11.80
2017-10-29T06:53:13.920Z,14.68
2017-10-29T06:55:44.805Z,10.63
2017-10-29T06:58:12.437Z,10.48
2017-10-29T07:00:40.053Z,15.02
2017-10-29T07:03:08.883Z,13.68
2017-10-29T07:05:41.048Z,16.20
2017-10-29T07:08:11.168Z,16.40
2017-10-29T07:10:45.072Z,16.73
2017-10-29T07:13:13.310Z,15.40
2017-10-29T07:15:40.933Z,14.52
2017-10-29T07:18:08.562Z,21.58
2017-10-29T07:20:36.197Z,17.15
2017-10-29T07:23:03.803Z,14.82
2017-10-29T07:25:31.550Z,16.52
2017-10-29T07:27:59.167Z,15.70
2017-10-29T07:30:26.780Z,13.82
2017-10-29T07:32:54.426Z,16.62
2017-10-29T07:35:22.053Z,22.85
2017-10-29T07:37:50.466Z,15.40
2017-10-29T07:40:18.081Z,19.17
2017-10-29T07:42:46.678Z,15.15
2017-10-29T07:45:14.326Z,19.85
2017-10-29T07:47:42.011Z,15.13
2017-10-29T07:50:09.674Z,17.35
2017-10-29T07:52:38.064Z,12.88
2017-10-29T07:55:05.706Z,18.75
2017-10-29T07:57:33.366Z,14.75
2017-10-29T08:00:01.008Z,10.13
2017-10-29T08:02:28.657Z,14.32
2017-10-29T08:04:56.289Z,16.00
2017-10-29T08:07:23.911Z,13.88
2017-10-29T08:09:52.333Z,21.37
2017-10-29T08:12:19.965Z,13.07
2017-10-29T08:14:47.633Z,14.30
2017-10-29T08:17:15.241Z,12.52
2017-10-29T08:19:42.870Z,14.80
2017-10-29T08:22:10.526Z,11.10
2017-10-29T08:24:38.146Z,18.67
2017-10-29T08:27:05.806Z,17.85
2017-10-29T08:29:34.186Z,16.65
2017-10-29T08:32:01.871Z,19.60
2017-10-29T08:34:29.522Z,19.80
2017-10-29T08:36:57.177Z,21.00
2017-10-29T08:39:24.818Z,13.95
2017-10-29T08:41:52.440Z,16.10
2017-10-29T08:44:20.058Z,18.40
2017-10-29T08:46:48.470Z,11.27
2017-10-29T08:49:16.095Z,22.65
2017-10-29T08:51:43.746Z,19.60
2017-10-29T08:54:11.365Z,18.73
2017-10-29T08:56:38.996Z,15.63
2017-10-29T08:59:07.409Z,11.32
2017-10-29T09:01:35.013Z,16.73
2017-10-29T09:04:03.447Z,18.20
2017-10-29T09:06:31.062Z,12.40
2017-10-29T09:09:02.293Z,12.40
2017-10-29T09:11:30.186Z,13.45
2017-10-29T09:13:58.964Z,13.48
2017-10-29T09:16:27.397Z,13.00
2017-10-29T09:18:55.013Z,11.68
2017-10-29T09:21:22.631Z,11.40
2017-10-29T09:23:51.057Z,13.10
2017-10-29T09:26:27.156Z,12.27
2017-10-29T09:28:55.955Z,8.05
2017-10-29T09:31:23.577Z,11.95
2017-10-29T09:33:51.275Z,15.40
2017-10-29T09:36:18.939Z,9.05
2017-10-29T09:38:46.560Z,9.57
2017-10-29T09:41:14.211Z,8.35
2017-10-29T09:43:41.832Z,11.63
2017-10-29T09:46:09.454Z,11.18
2017-10-29T09:48:37.103Z,11.48
2017-10-29T09:51:04.717Z,9.23
2017-10-29T09:53:32.357Z,7.53
2017-10-29T09:55:59.982Z,8.98
2017-10-29T09:58:27.593Z,4.82
2017-10-29T10:00:55.241Z,7.28
2017-10-29T10:03:22.874Z,10.27
2017-10-29T10:05:51.283Z,14.68
2017-10-29T10:08:18.919Z,10.15
2017-10-29T10:10:46.592Z,10.20
2017-10-29T10:13:14.327Z,8.32
2017-10-29T10:15:41.954Z,4.70
2017-10-29T10:18:09.610Z,5.30
2017-10-29T10:20:37.219Z,6.22
2017-10-29T10:23:04.842Z,6.22
2017-10-29T10:25:32.484Z,7.47
2017-10-29T10:28:01.477Z,6.20
2017-10-29T10:30:29.892Z,3.22
2017-10-29T10:32:57.524Z,5.57
2017-10-29T10:35:25.177Z,10.60
2017-10-29T10:37:52.827Z,11.15
2017-10-29T10:40:20.448Z,5.45
2017-10-29T10:42:48.101Z,4.20
2017-10-29T10:45:15.724Z,3.92
2017-10-29T10:47:44.107Z,3.17
2017-10-29T10:50:11.746Z,3.97
2017-10-29T10:52:39.457Z,8.90
2017-10-29T10:55:07.116Z,4.18
2017-10-29T10:57:34.731Z,2.03
2017-10-29T11:00:02.360Z,2.80
2017-10-29T11:02:30.026Z,1.48
2017-10-29T11:04:57.747Z,3.87
2017-10-29T11:07:25.440Z,3.83
2017-10-29T11:09:53.050Z,4.68
2017-10-29T11:12:20.995Z,2.20
2017-10-29T11:14:48.637Z,1.80
2017-10-29T11:17:16.591Z,2.58
2017-10-29T11:19:45.399Z,1.05
2017-10-29T11:22:14.160Z,0.70
2017-10-29T11:24:41.912Z,0.95
2017-10-29T11:27:09.615Z,1.00
2017-10-29T11:29:37.554Z,0.70
2017-10-29T11:32:08.031Z,0.85
2017-10-29T11:34:35.674Z,1.35
2017-10-29T11:37:06.192Z,2.78
2017-10-29T11:39:34.137Z,3.42
2017-10-29T11:42:01.749Z,1.20
2017-10-29T11:44:29.400Z,0.75
2017-10-29T11:46:57.040Z,1.08
2017-10-29T11:49:26.216Z,1.87
2017-10-29T11:51:55.366Z,1.10
2017-10-29T11:54:23.027Z,1.17
2017-10-29T11:56:51.115Z,1.37
2017-10-29T11:59:18.774Z,0.80
2017-10-29T12:01:46.396Z,0.73
2017-10-29T12:04:14.814Z,1.15
2017-10-29T12:09:10.706Z,0.85
2017-10-29T12:11:38.320Z,0.60
2017-10-29T12:14:10.593Z,0.90
2017-10-29T12:16:38.235Z,1.27
2017-10-29T12:19:05.843Z,0.80
2017-10-29T12:21:34.190Z,1.65
2017-10-29T12:24:01.801Z,1.23
2017-10-29T12:26:29.431Z,1.08
2017-10-29T12:28:57.096Z,3.20
2017-10-29T12:31:24.715Z,0.70
2017-10-29T12:33:52.365Z,1.60
2017-10-29T12:36:20.770Z,0.75
2017-10-29T12:38:48.491Z,0.70
2017-10-29T12:41:16.226Z,1.25
2017-10-29T12:43:43.851Z,2.72
2017-10-29T12:46:11.488Z,1.85
2017-10-29T12:48:39.102Z,1.95
2017-10-29T12:51:06.722Z,1.80
2017-10-29T12:53:34.360Z,1.77
2017-10-29T12:56:01.976Z,3.22
2017-10-29T12:58:29.798Z,1.50
2017-10-29T13:00:57.907Z,3.47
2017-10-29T13:03:27.083Z,2.35
2017-10-29T13:05:56.114Z,2.97
2017-10-29T13:08:23.772Z,3.90
2017-10-29T13:10:51.445Z,3.78
2017-10-29T13:13:22.213Z,1.92
2017-10-29T13:15:49.802Z,3.08
2017-10-29T13:18:17.491Z,1.75
2017-10-29T13:20:45.735Z,1.70
2017-10-29T13:23:18.797Z,3.42
2017-10-29T13:25:48.800Z,4.72
2017-10-29T13:28:16.675Z,4.43
2017-10-29T13:30:44.377Z,3.12
2017-10-29T13:33:12.005Z,2.97
2017-10-29T13:35:39.919Z,1.12
2017-10-29T13:38:07.645Z,0.68
2017-10-29T13:40:35.271Z,1.33
2017-10-29T13:43:02.998Z,0.70
2017-10-29T13:45:30.702Z,2.05
2017-10-29T13:47:58.339Z,1.30
2017-10-29T13:50:26.951Z,0.70
2017-10-29T13:52:54.674Z,1.02
2017-10-29T13:55:22.328Z,2.03
2017-10-29T13:57:49.963Z,1.02
2017-10-29T14:00:19.411Z,1.23
2017-10-29T14:02:47.201Z,1.35
2017-10-29T14:05:14.830Z,0.95
2017-10-29T14:07:43.230Z,0.85
2017-10-29T14:10:12.629Z,1.40
2017-10-29T14:12:40.378Z,1.52
2017-10-29T14:15:10.134Z,1.00
2017-10-29T14:17:38.407Z,0.70
2017-10-29T14:20:06.308Z,0.82
2017-10-29T14:22:34.006Z,1.30
2017-10-29T14:25:02.884Z,0.80
2017-10-29T14:27:31.618Z,0.80
2017-10-29T14:30:00.154Z,1.65
2017-10-29T14:32:28.635Z,1.35
2017-10-29T14:34:56.317Z,1.77
2017-10-29T14:37:24.782Z,1.62
2017-10-29T14:39:52.561Z,3.92
2017-10-29T14:42:20.435Z,3.95
2017-10-29T14:44:48.144Z,1.40
2017-10-29T14:47:16.652Z,1.75
2017-10-29T14:49:44.349Z,2.30
2017-10-29T14:52:12.019Z,3.60
2017-10-29T14:54:42.437Z,4.07
2017-10-29T14:57:10.399Z,3.00
2017-10-29T14:59:38.078Z,3.45
2017-10-29T15:02:07.322Z,3.22
2017-10-29T15:04:35.666Z,4.20
2017-10-29T15:07:03.310Z,4.50
2017-10-29T15:09:31.773Z,5.55
2017-10-29T15:12:00.241Z,5.53
2017-10-29T15:14:27.951Z,5.32
2017-10-29T15:16:56.622Z,4.70
2017-10-29T15:19:24.227Z,6.05
2017-10-29T15:21:52.882Z,5.72
2017-10-29T15:24:21.991Z,6.00
2017-10-29T15:26:49.891Z,5.62
2017-10-29T15:29:17.515Z,6.35
2017-10-29T15:31:45.123Z,6.57
2017-10-29T15:34:12.773Z,6.68
2017-10-29T15:36:40.386Z,6.70
2017-10-29T15:39:08.030Z,6.20
2017-10-29T15:41:36.414Z,5.43
2017-10-29T15:44:04.066Z,6.75
2017-10-29T15:46:31.984Z,9.73
2017-10-29T15:49:00.319Z,8.02
2017-10-29T15:51:29.245Z,6.80
2017-10-29T15:53:57.147Z,6.62
2017-10-29T15:56:25.770Z,6.07
2017-10-29T15:58:53.378Z,5.95
2017-10-29T16:01:20.990Z,5.75
2017-10-29T16:03:48.665Z,7.65
2017-10-29T16:06:16.274Z,7.15
2017-10-29T16:08:43.993Z,7.45
2017-10-29T16:11:11.665Z,10.57
2017-10-29T16:13:39.279Z,6.50
2017-10-29T16:16:06.920Z,6.37
2017-10-29T16:18:34.549Z,5.80
2017-10-29T16:21:02.250Z,5.35
2017-10-29T16:23:29.859Z,5.90
2017-10-29T16:25:57.506Z,6.97
2017-10-29T16:28:25.144Z,6.60
2017-10-29T16:30:53.291Z,3.70
2017-10-29T16:33:21.772Z,3.65
2017-10-29T16:35:49.481Z,1.45
2017-10-29T16:38:17.276Z,1.75
2017-10-29T16:40:44.920Z,2.05
2017-10-29T16:43:12.547Z,1.98
2017-10-29T16:45:40.252Z,2.25
2017-10-29T16:48:08.671Z,1.77
2017-10-29T16:50:36.290Z,1.40
2017-10-29T16:53:03.960Z,1.30
2017-10-29T16:55:31.570Z,3.15
2017-10-29T16:57:59.200Z,1.25
2017-10-29T17:00:26.837Z,0.95
2017-10-29T17:02:55.225Z,1.35
2017-10-29T17:05:22.877Z,1.40
2017-10-29T17:07:50.491Z,1.20
2017-10-29T17:10:18.895Z,1.23
2017-10-29T17:12:46.561Z,1.37
2017-10-29T17:15:14.198Z,0.52
2017-10-29T17:17:41.807Z,2.10
2017-10-29T17:20:09.425Z,1.45
2017-10-29T17:22:37.090Z,0.73
2017-10-29T17:25:04.699Z,2.12
2017-10-29T17:27:32.655Z,1.05
2017-10-29T17:30:00.291Z,1.67
2017-10-29T17:32:27.940Z,0.60
2017-10-29T17:34:55.594Z,1.20
2017-10-29T17:37:27.751Z,1.27
2017-10-29T17:39:55.479Z,2.55
2017-10-29T17:42:23.150Z,0.80
2017-10-29T17:44:50.787Z,0.90
2017-10-29T17:47:18.486Z,2.60
2017-10-29T17:49:49.748Z,0.80
2017-10-29T17:52:20.756Z,2.00
2017-10-29T17:54:52.097Z,1.35
2017-10-29T17:57:24.874Z,2.75
2017-10-29T17:59:53.321Z,1.42
2017-10-29T18:02:20.947Z,6.82
2017-10-29T18:04:48.625Z,1.95
2017-10-29T18:07:16.288Z,3.65
2017-10-29T18:09:43.935Z,1.10
2017-10-29T18:12:11.547Z,3.28
2017-10-29T18:14:39.798Z,1.40
2017-10-29T18:17:08.300Z,1.30
2017-10-29T18:19:35.931Z,5.28
2017-10-29T18:22:03.574Z,4.57
2017-10-29T18:24:31.223Z,4.32
2017-10-29T18:26:58.852Z,3.35
2017-10-29T18:29:27.276Z,3.55
2017-10-29T18:31:56.511Z,4.30
2017-10-29T18:34:25.035Z,3.85
2017-10-29T18:36:52.664Z,4.32
2017-10-29T18:39:20.334Z,4.30
2017-10-29T18:41:49.058Z,4.20
2017-10-29T18:44:16.699Z,5.25
2017-10-29T18:46:44.403Z,4.18
2017-10-29T18:49:12.018Z,4.15
2017-10-29T18:51:39.638Z,5.07
2017-10-29T18:54:07.290Z,3.25
2017-10-29T18:56:34.992Z,3.85
2017-10-29T18:59:02.672Z,4.90
2017-10-29T19:01:30.298Z,5.43
2017-10-29T19:03:58.678Z,7.43
2017-10-29T19:06:26.443Z,3.45
2017-10-29T19:08:54.076Z,1.85
2017-10-29T19:11:21.722Z,2.37
2017-10-29T19:13:49.349Z,4.45
2017-10-29T19:16:16.959Z,2.08
2017-10-29T19:18:44.606Z,3.87
2017-10-29T19:21:12.286Z,4.10
2017-10-29T19:23:39.935Z,2.35
2017-10-29T19:26:08.329Z,3.47
2017-10-29T19:28:35.985Z,2.20
2017-10-29T19:31:03.680Z,2.37
2017-10-29T19:33:31.307Z,3.70
2017-10-29T19:35:58.948Z,2.28
2017-10-29T19:38:26.558Z,1.50
2017-10-29T19:40:54.167Z,3.55
2017-10-29T19:43:21.810Z,3.90
2017-10-29T19:45:49.432Z,3.30
2017-10-29T19:48:17.120Z,6.57
2017-10-29T19:50:45.506Z,6.05
2017-10-29T19:53:13.108Z,2.00
2017-10-29T19:55:40.742Z,1.65
2017-10-29T19:58:08.363Z,1.87
2017-10-29T20:00:36.030Z,1.10
2017-10-29T20:03:03.650Z,2.00
2017-10-29T20:05:31.267Z,1.65
2017-10-29T20:07:59.687Z,3.10
2017-10-29T20:10:27.293Z,1.70
2017-10-29T20:12:54.968Z,2.50
2017-10-29T20:15:22.578Z,5.37
2017-10-29T20:17:50.195Z,3.50
2017-10-29T20:20:17.836Z,3.80
2017-10-29T20:22:45.450Z,4.40
2017-10-29T20:25:13.094Z,5.75
2017-10-29T20:27:40.720Z,7.35
2017-10-29T20:30:08.734Z,7.12
2017-10-29T20:32:36.372Z,6.50
2017-10-29T20:35:03.994Z,7.72
2017-10-29T20:37:31.645Z,8.68
2017-10-29T20:39:59.259Z,10.07
2017-10-29T20:42:26.875Z,9.80
2017-10-29T20:44:55.330Z,10.98
2017-10-29T20:47:22.951Z,10.00
2017-10-29T20:49:50.612Z,8.70
2017-10-29T20:52:18.229Z,9.98
2017-10-29T20:54:45.842Z,9.68
2017-10-29T20:57:13.775Z,11.73
2017-10-29T20:59:41.519Z,15.73
2017-10-29T21:02:09.389Z,11.90
2017-10-29T21:04:37.786Z,11.10
2017-10-29T21:07:05.411Z,11.98
2017-10-29T21:09:33.064Z,10.27
2017-10-29T21:12:00.679Z,11.30
2017-10-29T21:14:28.391Z,13.88
2017-10-29T21:16:55.993Z,8.75
2017-10-29T21:19:24.378Z,13.88
2017-10-29T21:21:52.022Z,9.52
2017-10-29T21:24:19.723Z,7.72
2017-10-29T21:26:47.374Z,16.12
2017-10-29T21:29:14.997Z,10.30
2017-10-29T21:31:42.627Z,12.40
2017-10-29T21:34:10.276Z,11.35
2017-10-29T21:36:37.883Z,8.93
2017-10-29T21:39:05.533Z,9.52
2017-10-29T21:41:33.151Z,11.63
2017-10-29T21:44:00.762Z,9.85
2017-10-29T21:46:28.667Z,14.15
2017-10-29T21:48:57.048Z,11.48
2017-10-29T21:51:24.797Z,8.48
2017-10-29T21:53:52.428Z,13.85
2017-10-29T21:56:20.066Z,15.43
2017-10-29T21:58:48.483Z,21.65
2017-10-29T22:01:16.103Z,23.60
2017-10-29T22:03:43.758Z,14.50
2017-10-29T22:06:11.382Z,10.60
2017-10-29T22:08:39.779Z,13.88
2017-10-29T22:11:07.422Z,11.50
2017-10-29T22:13:35.030Z,14.75
2017-10-29T22:16:02.682Z,14.38
2017-10-29T22:18:31.061Z,18.17
2017-10-29T22:20:58.678Z,12.65
2017-10-29T22:23:27.095Z,13.88
2017-10-29T22:25:54.705Z,22.83
2017-10-29T22:28:23.147Z,14.93
2017-10-29T22:30:51.853Z,21.48
2017-10-29T22:33:19.468Z,12.57
2017-10-29T22:35:47.110Z,20.33
2017-10-29T22:38:14.735Z,12.52
2017-10-29T22:40:42.396Z,16.05
2017-10-29T22:43:10.010Z,19.00
2017-10-29T22:45:37.623Z,15.23
2017-10-29T22:48:05.272Z,23.40
2017-10-29T22:50:32.891Z,13.90
2017-10-29T22:53:01.661Z,22.30
2017-10-29T22:55:29.276Z,12.98
2017-10-29T22:57:56.893Z,13.25
2017-10-29T23:00:24.542Z,18.50
2017-10-29T23:02:52.171Z,15.63
2017-10-29T23:05:31.869Z,16.95
2017-10-29T23:08:04.081Z,15.77
2017-10-29T23:10:31.738Z,18.27
2017-10-29T23:12:59.416Z,16.25
2017-10-29T23:15:27.029Z,17.55
2017-10-29T23:17:54.672Z,16.52
2017-10-29T23:20:22.347Z,17.35
2017-10-29T23:22:49.991Z,14.60
2017-10-29T23:25:17.610Z,13.70
2017-10-29T23:27:45.269Z,16.58
2017-10-29T23:30:12.924Z,14.95
2017-10-29T23:32:40.530Z,16.77
2017-10-29T23:35:08.166Z,18.23
2017-10-29T23:37:35.782Z,17.02
2017-10-29T23:40:03.399Z,12.55
2017-10-29T23:42:31.049Z,16.73
2017-10-29T23:44:58.668Z,22.25
2017-10-29T23:47:26.339Z,16.33
2017-10-29T23:49:53.954Z,16.15
2017-10-29T23:52:21.577Z,14.40
2017-10-29T23:54:49.986Z,15.13
2017-10-29T23:57:17.612Z,15.57
2017-10-29T23:59:45.274Z,16.90
